createdAt,value
2023-05-06T00:00:40.353Z,15.73
2023-05-06T00:03:08.492Z,15.73
2023-05-06T00:05:36.133Z,15.76
2023-05-06T00:08:03.399Z,15.76
2023-05-06T00:10:30.796Z,15.77
2023-05-06T00:12:58.205Z,15.72
2023-05-06T00:15:25.800Z,15.66
2023-05-06T00:17:53.177Z,15.61
2023-05-06T00:20:20.432Z,15.62
2023-05-06T00:22:47.964Z,15.64
2023-05-06T00:25:15.269Z,15.66
2023-05-06T00:27:42.530Z,15.65
2023-05-06T00:30:11.099Z,15.62
2023-05-06T00:32:38.635Z,15.59
2023-05-06T00:35:06.967Z,15.58
2023-05-06T00:37:34.625Z,15.59
2023-05-06T00:40:03.331Z,15.61
2023-05-06T00:42:30.850Z,15.62
2023-05-06T00:44:58.147Z,15.60
2023-05-06T00:47:26.482Z,15.58
2023-05-06T00:49:53.969Z,15.53
2023-05-06T00:52:21.336Z,15.47
2023-05-06T00:54:49.247Z,15.43
2023-05-06T00:57:16.549Z,15.43
2023-05-06T00:59:44.497Z,15.41
2023-05-06T01:02:12.017Z,15.41
2023-05-06T01:04:41.794Z,15.41
2023-05-06T01:07:12.535Z,15.39
2023-05-06T01:09:43.252Z,15.39
2023-05-06T01:12:20.388Z,15.37
2023-05-06T01:14:59.915Z,15.38
2023-05-06T01:17:28.729Z,15.40
2023-05-06T01:20:02.017Z,15.41
2023-05-06T01:22:31.578Z,15.44
2023-05-06T01:24:58.844Z,15.41
2023-05-06T01:27:26.143Z,15.41
2023-05-06T01:29:53.407Z,15.43
2023-05-06T01:32:26.624Z,15.43
2023-05-06T01:35:00.129Z,15.46
2023-05-06T01:37:40.577Z,15.45
2023-05-06T01:40:09.008Z,15.43
2023-05-06T01:42:38.920Z,15.41
2023-05-06T01:45:08.812Z,15.36
2023-05-06T01:47:37.224Z,15.35
2023-05-06T01:50:05.477Z,15.35
2023-05-06T01:52:32.849Z,15.38
2023-05-06T01:55:00.162Z,15.40
2023-05-06T01:57:28.852Z,15.40
2023-05-06T01:59:56.130Z,15.40
2023-05-06T02:02:24.617Z,15.40
2023-05-06T02:04:53.568Z,15.40
2023-05-06T02:07:20.857Z,15.43
2023-05-06T02:09:48.235Z,15.46
2023-05-06T02:12:15.406Z,15.46
2023-05-06T02:14:42.586Z,15.46
2023-05-06T02:17:09.843Z,15.45
2023-05-06T02:19:37.170Z,15.43
2023-05-06T02:22:04.358Z,15.38
2023-05-06T02:24:31.657Z,15.38
2023-05-06T02:26:58.921Z,15.34
2023-05-06T02:29:26.136Z,15.34
2023-05-06T02:31:53.435Z,15.33
2023-05-06T02:34:20.603Z,15.30
2023-05-06T02:36:47.807Z,15.27
2023-05-06T02:39:15.092Z,15.22
2023-05-06T02:41:42.245Z,15.21
2023-05-06T02:44:09.880Z,15.21
2023-05-06T02:46:37.081Z,15.16
2023-05-06T02:49:04.368Z,15.14
2023-05-06T02:51:32.250Z,15.11
2023-05-06T02:53:59.409Z,15.08
2023-05-06T02:56:27.078Z,15.03
2023-05-06T02:58:54.336Z,15.02
2023-05-06T03:01:21.754Z,15.02
2023-05-06T03:03:49.044Z,14.99
2023-05-06T03:06:16.276Z,14.96
2023-05-06T03:08:43.561Z,14.92
2023-05-06T03:11:10.734Z,14.88
2023-05-06T03:13:37.895Z,14.84
2023-05-06T03:16:05.454Z,14.82
2023-05-06T03:18:32.695Z,14.80
2023-05-06T03:21:01.681Z,14.76
2023-05-06T03:23:29.232Z,14.73
2023-05-06T03:25:56.615Z,14.72
2023-05-06T03:28:23.847Z,14.70
2023-05-06T03:30:50.973Z,14.68
2023-05-06T03:33:18.211Z,14.71
2023-05-06T03:35:45.551Z,14.70
2023-05-06T03:38:12.737Z,14.69
2023-05-06T03:40:40.003Z,14.65
2023-05-06T03:43:07.139Z,14.64
2023-05-06T03:45:34.347Z,14.64
2023-05-06T03:48:01.643Z,14.65
2023-05-06T03:50:28.854Z,14.65
2023-05-06T03:52:56.017Z,14.64
2023-05-06T03:55:23.282Z,14.63
2023-05-06T03:57:50.433Z,14.63
2023-05-06T04:00:18.146Z,14.62
2023-05-06T04:02:45.327Z,14.62
2023-05-06T04:05:12.684Z,14.65
2023-05-06T04:07:40.050Z,14.66
2023-05-06T04:10:08.567Z,14.63
2023-05-06T04:12:35.769Z,14.63
2023-05-06T04:15:03.333Z,14.63
2023-05-06T04:17:30.598Z,14.63
2023-05-06T04:19:58.225Z,14.61
2023-05-06T04:22:25.669Z,14.64
2023-05-06T04:24:52.817Z,14.65
2023-05-06T04:27:19.963Z,14.66
2023-05-06T04:29:47.176Z,14.66
2023-05-06T04:32:14.463Z,14.64
2023-05-06T04:34:41.966Z,14.64
2023-05-06T04:37:09.505Z,14.68
2023-05-06T04:39:39.720Z,14.69
2023-05-06T04:42:06.937Z,14.70
2023-05-06T04:44:34.697Z,14.70
2023-05-06T04:47:01.962Z,14.67
2023-05-06T04:49:29.160Z,14.66
2023-05-06T04:51:56.836Z,14.66
2023-05-06T04:54:24.026Z,14.70
2023-05-06T04:56:51.778Z,14.75
2023-05-06T04:59:19.004Z,14.79
2023-05-06T05:01:46.481Z,14.81
2023-05-06T05:04:13.767Z,14.82
2023-05-06T05:06:41.088Z,14.83
2023-05-06T05:09:08.383Z,14.87
2023-05-06T05:11:38.533Z,14.89
2023-05-06T05:14:05.784Z,14.90
2023-05-06T05:16:33.244Z,14.92
2023-05-06T05:19:02.931Z,14.92
2023-05-06T05:21:30.902Z,14.93
2023-05-06T05:23:58.129Z,14.97
2023-05-06T05:26:25.344Z,15.03
2023-05-06T05:28:52.529Z,15.07
2023-05-06T05:31:19.747Z,15.12
2023-05-06T05:33:46.972Z,15.16
2023-05-06T05:36:15.671Z,15.21
2023-05-06T05:38:42.882Z,15.22
2023-05-06T05:41:10.175Z,15.27
2023-05-06T05:43:37.394Z,15.29
2023-05-06T05:46:05.017Z,15.32
2023-05-06T05:48:33.172Z,15.34
2023-05-06T05:51:02.285Z,15.36
2023-05-06T05:53:29.488Z,15.39
2023-05-06T05:55:56.755Z,15.43
2023-05-06T05:58:24.040Z,15.47
2023-05-06T06:00:51.445Z,15.51
2023-05-06T06:03:19.306Z,15.51
2023-05-06T06:05:46.933Z,15.55
2023-05-06T06:08:14.224Z,15.59
2023-05-06T06:10:42.304Z,15.63
2023-05-06T06:13:09.572Z,15.69
2023-05-06T06:15:36.920Z,15.77
2023-05-06T06:18:04.334Z,15.80
2023-05-06T06:20:32.089Z,15.81
2023-05-06T06:22:59.324Z,15.83
2023-05-06T06:25:26.535Z,15.87
2023-05-06T06:27:56.041Z,15.95
2023-05-06T06:30:23.501Z,16.03
2023-05-06T06:32:53.246Z,16.09
2023-05-06T06:35:20.767Z,16.12
2023-05-06T06:37:48.228Z,16.14
2023-05-06T06:40:15.971Z,16.15
2023-05-06T06:42:43.218Z,16.16
2023-05-06T06:45:11.548Z,16.18
2023-05-06T06:47:39.201Z,16.21
2023-05-06T06:50:07.667Z,16.27
2023-05-06T06:52:35.950Z,16.27
2023-05-06T06:55:03.750Z,16.30
2023-05-06T06:57:30.934Z,16.26
2023-05-06T06:59:58.153Z,16.23
2023-05-06T07:02:25.801Z,16.21
2023-05-06T07:04:54.051Z,16.17
2023-05-06T07:07:21.318Z,16.15
2023-05-06T07:09:48.523Z,16.14
2023-05-06T07:12:15.765Z,16.13
2023-05-06T07:14:42.943Z,16.16
2023-05-06T07:17:10.300Z,16.22
2023-05-06T07:19:37.604Z,16.29
2023-05-06T07:22:04.755Z,16.39
2023-05-06T07:24:31.943Z,16.45
2023-05-06T07:26:59.190Z,16.49
2023-05-06T07:29:26.538Z,16.49
2023-05-06T07:31:53.778Z,16.48
2023-05-06T07:34:21.192Z,16.49
2023-05-06T07:36:48.528Z,16.50
2023-05-06T07:39:15.733Z,16.51
2023-05-06T07:41:43.009Z,16.54
2023-05-06T07:44:10.309Z,16.56
2023-05-06T07:46:37.848Z,16.60
2023-05-06T07:49:05.131Z,16.61
2023-05-06T07:51:32.325Z,16.62
2023-05-06T07:53:59.574Z,16.64
2023-05-06T07:56:26.995Z,16.66
2023-05-06T07:58:54.622Z,16.67
2023-05-06T08:01:21.803Z,16.72
2023-05-06T08:03:49.213Z,16.76
2023-05-06T08:06:16.619Z,16.82
2023-05-06T08:08:44.051Z,16.87
2023-05-06T08:11:11.343Z,16.90
2023-05-06T08:13:39.102Z,16.92
2023-05-06T08:16:07.150Z,16.96
2023-05-06T08:18:34.533Z,16.98
2023-05-06T08:21:02.034Z,16.99
2023-05-06T08:23:29.360Z,17.03
2023-05-06T08:25:56.703Z,17.06
2023-05-06T08:28:25.296Z,17.01
2023-05-06T08:30:52.858Z,16.99
2023-05-06T08:33:20.341Z,16.97
2023-05-06T08:35:48.347Z,16.94
2023-05-06T08:38:15.586Z,16.92
2023-05-06T08:40:44.662Z,16.90
2023-05-06T08:43:14.958Z,16.88
2023-05-06T08:45:42.914Z,16.86
2023-05-06T08:48:10.297Z,16.86
2023-05-06T08:50:42.797Z,16.86
2023-05-06T08:53:13.840Z,16.88
2023-05-06T08:55:43.016Z,16.88
2023-05-06T08:58:14.035Z,16.91
2023-05-06T09:00:41.501Z,16.98
2023-05-06T09:03:08.753Z,17.06
2023-05-06T09:05:36.006Z,17.12
2023-05-06T09:08:03.762Z,17.17
2023-05-06T09:10:33.849Z,17.25
2023-05-06T09:13:01.210Z,17.34
2023-05-06T09:15:40.090Z,17.42
2023-05-06T09:18:07.424Z,17.46
2023-05-06T09:20:35.596Z,17.45
2023-05-06T09:23:03.415Z,17.42
2023-05-06T09:25:30.917Z,17.36
2023-05-06T09:28:04.300Z,17.32
2023-05-06T09:30:31.540Z,17.28
2023-05-06T09:32:58.887Z,17.25
2023-05-06T09:35:30.378Z,17.24
2023-05-06T09:37:57.619Z,17.20
2023-05-06T09:40:25.336Z,17.15
2023-05-06T09:42:52.594Z,17.09
2023-05-06T09:45:20.136Z,17.05
2023-05-06T09:47:49.828Z,17.05
2023-05-06T09:50:17.548Z,17.06
2023-05-06T09:52:46.787Z,17.09
2023-05-06T09:55:15.063Z,17.08
2023-05-06T09:57:43.034Z,17.08
2023-05-06T10:00:12.656Z,17.06
2023-05-06T10:02:41.940Z,17.05
2023-05-06T10:05:10.750Z,17.04
2023-05-06T10:07:39.876Z,17.06
2023-05-06T10:10:11.732Z,17.06
2023-05-06T10:12:39.543Z,17.04
2023-05-06T10:15:08.800Z,17.04
2023-05-06T10:17:40.194Z,17.05
2023-05-06T10:20:12.428Z,17.08
2023-05-06T10:22:44.542Z,17.07
2023-05-06T10:25:17.370Z,17.04
2023-05-06T10:27:45.450Z,17.06
2023-05-06T10:30:16.152Z,17.05
2023-05-06T10:32:45.142Z,17.05
2023-05-06T10:35:21.610Z,17.06
2023-05-06T10:37:51.224Z,17.05
2023-05-06T10:40:19.325Z,17.02
2023-05-06T10:42:46.714Z,16.99
2023-05-06T10:45:15.742Z,16.99
2023-05-06T10:47:49.321Z,17.00
2023-05-06T10:50:22.970Z,17.03
2023-05-06T10:52:56.290Z,17.06
2023-05-06T10:55:29.915Z,17.02
2023-05-06T10:58:03.024Z,17.03
2023-05-06T11:00:33.045Z,17.04
2023-05-06T11:03:06.915Z,17.05
2023-05-06T11:05:40.664Z,17.06
2023-05-06T11:08:12.249Z,17.08
2023-05-06T11:10:39.778Z,17.09
2023-05-06T11:13:17.799Z,17.09
2023-05-06T11:15:46.861Z,17.08
2023-05-06T11:18:37.497Z,17.07
2023-05-06T11:21:08.297Z,17.04
2023-05-06T11:23:42.409Z,16.99
2023-05-06T11:26:11.577Z,16.96
2023-05-06T11:28:40.427Z,16.90
2023-05-06T11:31:08.878Z,16.86
2023-05-06T11:33:37.624Z,16.83
2023-05-06T11:36:05.755Z,16.78
2023-05-06T11:38:39.253Z,16.73
2023-05-06T11:41:07.757Z,16.68
2023-05-06T11:43:35.360Z,16.63
2023-05-06T11:46:02.953Z,16.59
2023-05-06T11:48:31.053Z,16.56
2023-05-06T11:51:01.337Z,16.56
2023-05-06T11:53:30.420Z,16.57
2023-05-06T11:55:57.857Z,16.55
2023-05-06T11:58:27.209Z,16.54
2023-05-06T12:00:59.916Z,16.59
2023-05-06T12:03:29.112Z,16.62
2023-05-06T12:05:57.134Z,16.67
2023-05-06T12:08:28.608Z,16.73
2023-05-06T12:11:00.227Z,16.77
2023-05-06T12:13:28.335Z,16.79
2023-05-06T12:15:56.918Z,16.83
2023-05-06T12:18:24.855Z,16.83
2023-05-06T12:20:55.697Z,16.87
2023-05-06T12:23:23.751Z,16.89
2023-05-06T12:25:57.220Z,16.90
2023-05-06T12:28:24.476Z,16.88
2023-05-06T12:30:51.826Z,16.87
2023-05-06T12:33:19.313Z,16.84
2023-05-06T12:35:46.864Z,16.85
2023-05-06T12:38:16.134Z,16.85
2023-05-06T12:40:45.360Z,16.86
2023-05-06T12:43:12.869Z,16.86
2023-05-06T12:45:40.894Z,16.82
2023-05-06T12:48:15.752Z,16.81
2023-05-06T12:50:45.790Z,16.77
2023-05-06T12:53:13.870Z,16.71
2023-05-06T12:55:42.816Z,16.71
2023-05-06T12:58:16.426Z,16.68
2023-05-06T13:00:43.814Z,16.64
2023-05-06T13:03:12.252Z,16.58
2023-05-06T13:05:39.571Z,16.56
2023-05-06T13:08:07.054Z,16.58
2023-05-06T13:10:34.472Z,16.62
2023-05-06T13:13:01.924Z,16.63
2023-05-06T13:15:29.336Z,16.64
2023-05-06T13:17:57.710Z,16.64
2023-05-06T13:20:26.336Z,16.66
2023-05-06T13:22:54.832Z,16.70
2023-05-06T13:25:23.282Z,16.73
2023-05-06T13:27:50.617Z,16.75
2023-05-06T13:30:18.108Z,16.78
2023-05-06T13:32:47.176Z,16.80
2023-05-06T13:35:14.556Z,16.83
2023-05-06T13:37:41.818Z,16.87
2023-05-06T13:40:10.305Z,16.89
2023-05-06T13:42:39.048Z,16.92
2023-05-06T13:45:07.647Z,16.93
2023-05-06T13:47:35.198Z,16.92
2023-05-06T13:50:04.199Z,16.90
2023-05-06T13:52:31.706Z,16.85
2023-05-06T13:54:59.088Z,16.80
2023-05-06T13:57:26.600Z,16.76
2023-05-06T13:59:54.059Z,16.75
2023-05-06T14:02:21.806Z,16.79
2023-05-06T14:04:49.671Z,16.76
2023-05-06T14:07:17.175Z,16.76
2023-05-06T14:09:44.582Z,16.74
2023-05-06T14:12:12.002Z,16.74
2023-05-06T14:14:39.298Z,16.71
2023-05-06T14:17:06.817Z,16.67
2023-05-06T14:19:34.834Z,16.64
2023-05-06T14:22:02.528Z,16.57
2023-05-06T14:24:29.998Z,16.52
2023-05-06T14:26:57.425Z,16.48
2023-05-06T14:29:25.038Z,16.44
2023-05-06T14:31:54.035Z,16.41
2023-05-06T14:34:21.665Z,16.39
2023-05-06T14:36:48.917Z,16.36
2023-05-06T14:39:16.225Z,16.35
2023-05-06T14:41:43.464Z,16.34
2023-05-06T14:44:11.059Z,16.34
2023-05-06T14:46:38.276Z,16.32
2023-05-06T14:49:05.865Z,16.28
2023-05-06T14:51:34.900Z,16.26
2023-05-06T14:54:03.092Z,16.23
2023-05-06T14:56:30.382Z,16.24
2023-05-06T14:58:58.041Z,16.24
2023-05-06T15:01:26.133Z,16.22
2023-05-06T15:03:53.763Z,16.19
2023-05-06T15:06:21.229Z,16.23
2023-05-06T15:08:48.579Z,16.25
2023-05-06T15:11:15.845Z,16.29
2023-05-06T15:13:43.461Z,16.27
2023-05-06T15:16:11.650Z,16.28
2023-05-06T15:18:42.123Z,16.26
2023-05-06T15:21:09.544Z,16.25
2023-05-06T15:23:38.093Z,16.24
2023-05-06T15:26:06.029Z,16.25
2023-05-06T15:28:33.709Z,16.24
2023-05-06T15:31:01.485Z,16.23
2023-05-06T15:33:28.793Z,16.24
2023-05-06T15:35:56.319Z,16.23
2023-05-06T15:38:23.684Z,16.23
2023-05-06T15:40:52.176Z,16.24
2023-05-06T15:43:23.751Z,16.25
2023-05-06T15:45:52.180Z,16.24
2023-05-06T15:48:22.965Z,16.23
2023-05-06T15:50:50.562Z,16.23
2023-05-06T15:53:20.379Z,16.24
2023-05-06T15:55:56.602Z,16.25
2023-05-06T15:58:25.827Z,16.27
2023-05-06T16:00:53.314Z,16.29
2023-05-06T16:03:20.938Z,16.29
2023-05-06T16:05:49.068Z,16.29
2023-05-06T16:08:16.358Z,16.26
2023-05-06T16:10:43.814Z,16.30
2023-05-06T16:13:11.641Z,16.34
2023-05-06T16:15:39.143Z,16.36
2023-05-06T16:18:07.103Z,16.31
2023-05-06T16:20:34.953Z,16.28
2023-05-06T16:23:03.397Z,16.23
2023-05-06T16:25:31.023Z,16.22
2023-05-06T16:27:58.513Z,16.22
2023-05-06T16:30:25.750Z,16.22
2023-05-06T16:32:53.502Z,16.21
2023-05-06T16:35:20.920Z,16.20
2023-05-06T16:37:48.184Z,16.21
2023-05-06T16:40:21.290Z,16.21
2023-05-06T16:42:49.709Z,16.20
2023-05-06T16:45:17.304Z,16.23
2023-05-06T16:47:45.058Z,16.26
2023-05-06T16:50:13.065Z,16.24
2023-05-06T16:52:41.154Z,16.24
2023-05-06T16:55:09.467Z,16.26
2023-05-06T16:57:37.036Z,16.26
2023-05-06T17:00:08.437Z,16.31
2023-05-06T17:02:36.312Z,16.31
2023-05-06T17:05:04.595Z,16.31
2023-05-06T17:07:32.157Z,16.31
2023-05-06T17:09:59.718Z,16.32
2023-05-06T17:12:27.307Z,16.33
2023-05-06T17:14:54.810Z,16.33
2023-05-06T17:17:25.183Z,16.34
2023-05-06T17:19:52.623Z,16.34
2023-05-06T17:22:21.698Z,16.32
2023-05-06T17:24:50.262Z,16.31
2023-05-06T17:27:18.869Z,16.30
2023-05-06T17:29:47.119Z,16.25
2023-05-06T17:32:14.582Z,16.26
2023-05-06T17:34:41.876Z,16.29
2023-05-06T17:37:09.306Z,16.30
2023-05-06T17:39:38.644Z,16.31
2023-05-06T17:42:06.043Z,16.30
2023-05-06T17:44:35.694Z,16.29
2023-05-06T17:47:03.051Z,16.29
2023-05-06T17:49:30.592Z,16.31
2023-05-06T17:51:59.532Z,16.31
2023-05-06T17:54:32.855Z,16.32
2023-05-06T17:57:01.247Z,16.30
2023-05-06T17:59:29.552Z,16.31
2023-05-06T18:01:57.226Z,16.31
2023-05-06T18:04:24.545Z,16.30
2023-05-06T18:06:52.105Z,16.29
2023-05-06T18:09:19.887Z,16.31
2023-05-06T18:11:47.256Z,16.33
2023-05-06T18:14:15.157Z,16.33
2023-05-06T18:16:42.499Z,16.33
2023-05-06T18:19:09.863Z,16.31
2023-05-06T18:21:37.361Z,16.31
2023-05-06T18:24:15.405Z,16.33
2023-05-06T18:26:45.693Z,16.33
2023-05-06T18:29:13.470Z,16.34
2023-05-06T18:31:40.764Z,16.36
2023-05-06T18:34:08.206Z,16.35
2023-05-06T18:36:36.799Z,16.35
2023-05-06T18:39:05.079Z,16.35
2023-05-06T18:41:32.441Z,16.39
2023-05-06T18:43:59.915Z,16.37
2023-05-06T18:46:27.878Z,16.34
2023-05-06T18:48:56.519Z,16.33
2023-05-06T18:51:24.221Z,16.31
2023-05-06T18:53:51.665Z,16.30
2023-05-06T18:56:19.014Z,16.30
2023-05-06T18:58:46.418Z,16.31
2023-05-06T19:01:13.967Z,16.31
2023-05-06T19:03:42.760Z,16.27
2023-05-06T19:06:11.024Z,16.26
2023-05-06T19:08:39.046Z,16.26
2023-05-06T19:11:06.568Z,16.25
2023-05-06T19:13:33.941Z,16.27
2023-05-06T19:16:01.323Z,16.29
2023-05-06T19:18:28.567Z,16.29
2023-05-06T19:20:56.386Z,16.24
2023-05-06T19:23:23.605Z,16.23
2023-05-06T19:25:50.848Z,16.22
2023-05-06T19:28:18.136Z,16.25
2023-05-06T19:30:45.771Z,16.28
2023-05-06T19:33:13.269Z,16.27
2023-05-06T19:35:40.798Z,16.24
2023-05-06T19:38:09.593Z,16.20
2023-05-06T19:40:37.286Z,16.20
2023-05-06T19:43:04.660Z,16.20
2023-05-06T19:45:33.713Z,16.20
2023-05-06T19:48:01.947Z,16.22
2023-05-06T19:50:31.608Z,16.23
2023-05-06T19:52:58.789Z,16.24
2023-05-06T19:55:26.404Z,16.24
2023-05-06T19:57:57.239Z,16.22
2023-05-06T20:00:25.908Z,16.21
2023-05-06T20:02:53.281Z,16.21
2023-05-06T20:05:20.656Z,16.23
2023-05-06T20:07:47.889Z,16.22
2023-05-06T20:10:17.200Z,16.20
2023-05-06T20:12:44.475Z,16.18
2023-05-06T20:15:12.275Z,16.17
2023-05-06T20:17:39.938Z,16.16
2023-05-06T20:20:10.283Z,16.15
2023-05-06T20:22:39.242Z,16.15
2023-05-06T20:25:09.778Z,16.15
2023-05-06T20:27:37.273Z,16.12
2023-05-06T20:30:06.454Z,16.10
2023-05-06T20:32:34.407Z,16.11
2023-05-06T20:35:01.837Z,16.11
2023-05-06T20:37:30.953Z,16.15
2023-05-06T20:39:59.055Z,16.14
2023-05-06T20:42:26.690Z,16.12
2023-05-06T20:44:54.212Z,16.11
2023-05-06T20:47:21.648Z,16.10
2023-05-06T20:49:48.900Z,16.12
2023-05-06T20:52:16.153Z,16.15
2023-05-06T20:54:45.403Z,16.15
2023-05-06T20:57:15.615Z,16.14
2023-05-06T20:59:43.413Z,16.15
2023-05-06T21:02:11.330Z,16.12
2023-05-06T21:04:38.747Z,16.12
2023-05-06T21:07:06.145Z,16.12
2023-05-06T21:09:33.601Z,16.14
2023-05-06T21:12:00.728Z,16.15
2023-05-06T21:14:28.205Z,16.14
2023-05-06T21:16:55.646Z,16.14
2023-05-06T21:19:23.031Z,16.13
2023-05-06T21:21:50.335Z,16.10
2023-05-06T21:24:17.612Z,16.11
2023-05-06T21:26:44.972Z,16.13
2023-05-06T21:29:12.326Z,16.12
2023-05-06T21:31:39.958Z,16.11
2023-05-06T21:34:10.848Z,16.10
2023-05-06T21:36:38.129Z,16.08
2023-05-06T21:39:09.103Z,16.08
2023-05-06T21:41:36.925Z,16.10
2023-05-06T21:44:06.363Z,16.10
2023-05-06T21:46:33.767Z,16.10
2023-05-06T21:49:01.667Z,16.10
2023-05-06T21:51:30.655Z,16.12
2023-05-06T21:53:57.928Z,16.12
2023-05-06T21:56:25.309Z,16.13
2023-05-06T21:58:53.812Z,16.16
2023-05-06T22:01:21.225Z,16.18
2023-05-06T22:03:49.348Z,16.18
2023-05-06T22:06:16.588Z,16.16
2023-05-06T22:08:44.106Z,16.11
2023-05-06T22:11:11.386Z,16.08
2023-05-06T22:13:39.044Z,16.07
2023-05-06T22:16:08.187Z,16.06
2023-05-06T22:18:36.284Z,16.06
2023-05-06T22:21:03.723Z,16.05
2023-05-06T22:23:31.084Z,16.05
2023-05-06T22:25:58.656Z,16.07
2023-05-06T22:28:27.534Z,16.06
2023-05-06T22:30:54.738Z,16.07
2023-05-06T22:33:22.013Z,16.08
2023-05-06T22:35:49.245Z,16.10
2023-05-06T22:38:16.465Z,16.10
2023-05-06T22:40:43.762Z,16.11
2023-05-06T22:43:10.999Z,16.10
2023-05-06T22:45:38.424Z,16.11
2023-05-06T22:48:06.009Z,16.10
2023-05-06T22:50:33.364Z,16.10
2023-05-06T22:53:10.295Z,16.10
2023-05-06T22:55:41.254Z,16.08
2023-05-06T22:58:08.443Z,16.04
2023-05-06T23:00:35.667Z,16.03
2023-05-06T23:03:03.329Z,16.02
2023-05-06T23:05:30.835Z,16.05
2023-05-06T23:07:58.015Z,16.06
2023-05-06T23:10:25.306Z,16.03
2023-05-06T23:12:52.546Z,16.00
2023-05-06T23:15:19.766Z,15.99
2023-05-06T23:17:46.993Z,15.97
2023-05-06T23:20:14.176Z,15.97
2023-05-06T23:22:41.398Z,15.99
2023-05-06T23:25:10.871Z,15.99
2023-05-06T23:27:39.724Z,15.96
2023-05-06T23:30:08.825Z,15.93
2023-05-06T23:32:36.289Z,15.91
2023-05-06T23:35:05.307Z,15.93
2023-05-06T23:37:32.551Z,15.96
2023-05-06T23:39:59.899Z,15.95
2023-05-06T23:42:27.216Z,15.95
2023-05-06T23:44:54.385Z,15.95
2023-05-06T23:47:21.664Z,15.95
2023-05-06T23:49:48.917Z,15.94
2023-05-06T23:52:16.089Z,15.95
2023-05-06T23:54:43.316Z,15.96
2023-05-06T23:57:10.477Z,15.97
2023-05-06T23:59:37.648Z,15.93
